sensor_id;sensor_type;location;lat;lon;timestamp;P1;durP1;ratioP1;P2;durP2;ratioP2
79668;SDS011;69136;52.614;6.976;2024-01-06T00:00:13;9.43;;;4.95;;
79668;SDS011;69136;52.614;6.976;2024-01-06T00:02:58;8.38;;;4.32;;
79668;SDS011;69136;52.614;6.976;2024-01-06T00:05:42;8.95;;;4.43;;
79668;SDS011;69136;52.614;6.976;2024-01-06T00:08:26;8.00;;;4.57;;
79668;SDS011;69136;52.614;6.976;2024-01-06T00:11:10;6.80;;;4.28;;
79668;SDS011;69136;52.614;6.976;2024-01-06T00:13:54;6.85;;;3.55;;
79668;SDS011;69136;52.614;6.976;2024-01-06T00:16:38;10.25;;;4.78;;
79668;SDS011;69136;52.614;6.976;2024-01-06T00:19:22;7.90;;;4.15;;
79668;SDS011;69136;52.614;6.976;2024-01-06T00:22:06;7.30;;;3.83;;
79668;SDS011;69136;52.614;6.976;2024-01-06T00:24:51;7.18;;;3.83;;
79668;SDS011;69136;52.614;6.976;2024-01-06T00:27:36;7.75;;;4.10;;
79668;SDS011;69136;52.614;6.976;2024-01-06T00:30:19;8.32;;;4.03;;
79668;SDS011;69136;52.614;6.976;2024-01-06T00:35:48;8.43;;;4.35;;
79668;SDS011;69136;52.614;6.976;2024-01-06T00:38:32;9.77;;;4.63;;
79668;SDS011;69136;52.614;6.976;2024-01-06T00:41:16;7.93;;;4.43;;
79668;SDS011;69136;52.614;6.976;2024-01-06T00:44:01;8.68;;;4.53;;
79668;SDS011;69136;52.614;6.976;2024-01-06T00:46:45;8.80;;;4.35;;
79668;SDS011;69136;52.614;6.976;2024-01-06T00:49:29;8.98;;;4.88;;
79668;SDS011;69136;52.614;6.976;2024-01-06T00:52:14;7.90;;;4.30;;
79668;SDS011;69136;52.614;6.976;2024-01-06T00:54:58;7.20;;;4.07;;
79668;SDS011;69136;52.614;6.976;2024-01-06T00:57:42;8.95;;;4.35;;
79668;SDS011;69136;52.614;6.976;2024-01-06T01:00:27;9.82;;;4.72;;
79668;SDS011;69136;52.614;6.976;2024-01-06T01:03:11;8.18;;;4.50;;
79668;SDS011;69136;52.614;6.976;2024-01-06T01:05:55;10.13;;;5.07;;
79668;SDS011;69136;52.614;6.976;2024-01-06T01:08:39;11.35;;;5.57;;
79668;SDS011;69136;52.614;6.976;2024-01-06T01:11:23;11.82;;;5.13;;
79668;SDS011;69136;52.614;6.976;2024-01-06T01:14:07;10.75;;;5.40;;
79668;SDS011;69136;52.614;6.976;2024-01-06T01:16:51;11.80;;;5.88;;
79668;SDS011;69136;52.614;6.976;2024-01-06T01:19:36;11.88;;;5.80;;
79668;SDS011;69136;52.614;6.976;2024-01-06T01:22:20;12.23;;;6.38;;
79668;SDS011;69136;52.614;6.976;2024-01-06T01:25:04;10.93;;;5.97;;
79668;SDS011;69136;52.614;6.976;2024-01-06T01:27:51;11.90;;;5.95;;
79668;SDS011;69136;52.614;6.976;2024-01-06T01:30:35;13.13;;;6.20;;
79668;SDS011;69136;52.614;6.976;2024-01-06T01:33:19;12.60;;;6.57;;
79668;SDS011;69136;52.614;6.976;2024-01-06T01:36:03;11.45;;;5.75;;
79668;SDS011;69136;52.614;6.976;2024-01-06T01:38:47;11.10;;;5.25;;
79668;SDS011;69136;52.614;6.976;2024-01-06T01:41:32;10.93;;;5.45;;
79668;SDS011;69136;52.614;6.976;2024-01-06T01:44:16;8.18;;;4.65;;
79668;SDS011;69136;52.614;6.976;2024-01-06T01:47:00;13.27;;;5.15;;
79668;SDS011;69136;52.614;6.976;2024-01-06T01:49:45;12.27;;;6.60;;
79668;SDS011;69136;52.614;6.976;2024-01-06T01:52:30;14.48;;;7.22;;
79668;SDS011;69136;52.614;6.976;2024-01-06T01:55:15;10.73;;;6.63;;
79668;SDS011;69136;52.614;6.976;2024-01-06T01:57:59;11.90;;;6.65;;
79668;SDS011;69136;52.614;6.976;2024-01-06T02:00:44;11.10;;;6.25;;
79668;SDS011;69136;52.614;6.976;2024-01-06T02:03:29;12.65;;;6.93;;
79668;SDS011;69136;52.614;6.976;2024-01-06T02:06:14;14.13;;;7.07;;
79668;SDS011;69136;52.614;6.976;2024-01-06T02:08:57;14.48;;;7.65;;
79668;SDS011;69136;52.614;6.976;2024-01-06T02:11:42;13.05;;;7.28;;
79668;SDS011;69136;52.614;6.976;2024-01-06T02:14:26;18.27;;;8.18;;
79668;SDS011;69136;52.614;6.976;2024-01-06T02:17:10;18.80;;;9.38;;
79668;SDS011;69136;52.614;6.976;2024-01-06T02:19:54;17.98;;;8.75;;
79668;SDS011;69136;52.614;6.976;2024-01-06T02:22:40;19.85;;;9.55;;
79668;SDS011;69136;52.614;6.976;2024-01-06T02:25:24;20.77;;;9.07;;
79668;SDS011;69136;52.614;6.976;2024-01-06T02:28:08;17.50;;;8.63;;
79668;SDS011;69136;52.614;6.976;2024-01-06T02:30:52;17.70;;;9.50;;
79668;SDS011;69136;52.614;6.976;2024-01-06T02:33:36;18.98;;;8.80;;
79668;SDS011;69136;52.614;6.976;2024-01-06T02:36:21;19.33;;;9.45;;
79668;SDS011;69136;52.614;6.976;2024-01-06T02:39:05;23.73;;;11.35;;
79668;SDS011;69136;52.614;6.976;2024-01-06T02:41:50;21.35;;;9.68;;
79668;SDS011;69136;52.614;6.976;2024-01-06T02:44:34;23.60;;;10.45;;
79668;SDS011;69136;52.614;6.976;2024-01-06T02:47:18;22.13;;;9.95;;
79668;SDS011;69136;52.614;6.976;2024-01-06T02:50:02;20.20;;;8.88;;
79668;SDS011;69136;52.614;6.976;2024-01-06T02:52:46;17.40;;;9.10;;
79668;SDS011;69136;52.614;6.976;2024-01-06T02:55:30;20.73;;;10.40;;
79668;SDS011;69136;52.614;6.976;2024-01-06T02:58:14;20.65;;;9.95;;
79668;SDS011;69136;52.614;6.976;2024-01-06T03:00:58;24.38;;;10.93;;
79668;SDS011;69136;52.614;6.976;2024-01-06T03:03:42;19.70;;;9.25;;
79668;SDS011;69136;52.614;6.976;2024-01-06T03:06:27;23.38;;;11.27;;
79668;SDS011;69136;52.614;6.976;2024-01-06T03:09:11;21.00;;;9.85;;
79668;SDS011;69136;52.614;6.976;2024-01-06T03:11:55;23.10;;;10.57;;
79668;SDS011;69136;52.614;6.976;2024-01-06T03:14:39;25.65;;;11.15;;
79668;SDS011;69136;52.614;6.976;2024-01-06T03:17:24;23.02;;;11.45;;
79668;SDS011;69136;52.614;6.976;2024-01-06T03:20:07;23.30;;;11.20;;
79668;SDS011;69136;52.614;6.976;2024-01-06T03:22:52;25.27;;;11.45;;
79668;SDS011;69136;52.614;6.976;2024-01-06T03:25:36;26.42;;;12.02;;
79668;SDS011;69136;52.614;6.976;2024-01-06T03:28:20;24.38;;;11.75;;
79668;SDS011;69136;52.614;6.976;2024-01-06T03:31:04;21.70;;;10.73;;
79668;SDS011;69136;52.614;6.976;2024-01-06T03:33:48;21.88;;;10.27;;
79668;SDS011;69136;52.614;6.976;2024-01-06T03:36:32;22.27;;;11.98;;
79668;SDS011;69136;52.614;6.976;2024-01-06T03:39:16;21.98;;;10.63;;
79668;SDS011;69136;52.614;6.976;2024-01-06T03:42:00;21.10;;;9.95;;
79668;SDS011;69136;52.614;6.976;2024-01-06T03:44:44;20.95;;;8.98;;
79668;SDS011;69136;52.614;6.976;2024-01-06T03:47:28;27.80;;;11.05;;
79668;SDS011;69136;52.614;6.976;2024-01-06T03:50:12;24.10;;;11.13;;
79668;SDS011;69136;52.614;6.976;2024-01-06T03:52:56;22.60;;;10.98;;
79668;SDS011;69136;52.614;6.976;2024-01-06T03:55:40;23.90;;;10.38;;
79668;SDS011;69136;52.614;6.976;2024-01-06T03:58:24;21.55;;;9.93;;
79668;SDS011;69136;52.614;6.976;2024-01-06T04:01:08;21.65;;;10.52;;
79668;SDS011;69136;52.614;6.976;2024-01-06T04:03:53;23.10;;;10.23;;
79668;SDS011;69136;52.614;6.976;2024-01-06T04:06:37;22.98;;;10.43;;
79668;SDS011;69136;52.614;6.976;2024-01-06T04:09:22;21.92;;;10.23;;
79668;SDS011;69136;52.614;6.976;2024-01-06T04:12:06;20.48;;;9.40;;
79668;SDS011;69136;52.614;6.976;2024-01-06T04:14:50;18.75;;;8.95;;
79668;SDS011;69136;52.614;6.976;2024-01-06T04:17:34;16.70;;;7.68;;
79668;SDS011;69136;52.614;6.976;2024-01-06T04:20:18;16.50;;;8.07;;
79668;SDS011;69136;52.614;6.976;2024-01-06T04:23:02;14.27;;;7.45;;
79668;SDS011;69136;52.614;6.976;2024-01-06T04:25:47;13.15;;;7.05;;
79668;SDS011;69136;52.614;6.976;2024-01-06T04:28:31;14.13;;;7.90;;
79668;SDS011;69136;52.614;6.976;2024-01-06T04:31:15;14.05;;;7.90;;
79668;SDS011;69136;52.614;6.976;2024-01-06T04:33:59;13.80;;;8.27;;
79668;SDS011;69136;52.614;6.976;2024-01-06T04:36:43;17.20;;;8.43;;
79668;SDS011;69136;52.614;6.976;2024-01-06T04:39:26;17.42;;;8.60;;
79668;SDS011;69136;52.614;6.976;2024-01-06T04:42:11;18.33;;;9.32;;
79668;SDS011;69136;52.614;6.976;2024-01-06T04:44:55;22.40;;;10.30;;
79668;SDS011;69136;52.614;6.976;2024-01-06T04:47:39;19.35;;;10.32;;
79668;SDS011;69136;52.614;6.976;2024-01-06T04:50:23;16.77;;;9.18;;
79668;SDS011;69136;52.614;6.976;2024-01-06T04:53:07;18.60;;;9.45;;
79668;SDS011;69136;52.614;6.976;2024-01-06T04:55:51;19.40;;;9.77;;
79668;SDS011;69136;52.614;6.976;2024-01-06T04:58:35;19.67;;;8.90;;
79668;SDS011;69136;52.614;6.976;2024-01-06T05:01:19;15.32;;;8.50;;
79668;SDS011;69136;52.614;6.976;2024-01-06T05:04:04;17.58;;;9.00;;
79668;SDS011;69136;52.614;6.976;2024-01-06T05:06:48;21.30;;;10.05;;
79668;SDS011;69136;52.614;6.976;2024-01-06T05:09:33;21.40;;;10.48;;
79668;SDS011;69136;52.614;6.976;2024-01-06T05:12:17;20.25;;;9.45;;
79668;SDS011;69136;52.614;6.976;2024-01-06T05:15:01;21.90;;;10.38;;
79668;SDS011;69136;52.614;6.976;2024-01-06T05:17:45;19.23;;;10.15;;
79668;SDS011;69136;52.614;6.976;2024-01-06T05:20:29;19.48;;;10.73;;
79668;SDS011;69136;52.614;6.976;2024-01-06T05:23:13;22.42;;;10.35;;
79668;SDS011;69136;52.614;6.976;2024-01-06T05:25:57;20.60;;;9.75;;
79668;SDS011;69136;52.614;6.976;2024-01-06T05:28:41;21.75;;;9.77;;
79668;SDS011;69136;52.614;6.976;2024-01-06T05:31:25;22.45;;;10.32;;
79668;SDS011;69136;52.614;6.976;2024-01-06T05:34:08;24.23;;;10.55;;
79668;SDS011;69136;52.614;6.976;2024-01-06T05:36:52;20.85;;;9.23;;
79668;SDS011;69136;52.614;6.976;2024-01-06T05:42:22;23.55;;;10.93;;
79668;SDS011;69136;52.614;6.976;2024-01-06T05:45:06;26.55;;;10.65;;
79668;SDS011;69136;52.614;6.976;2024-01-06T05:47:50;20.23;;;10.02;;
79668;SDS011;69136;52.614;6.976;2024-01-06T05:50:34;25.27;;;10.45;;
79668;SDS011;69136;52.614;6.976;2024-01-06T05:53:18;21.63;;;9.68;;
79668;SDS011;69136;52.614;6.976;2024-01-06T05:56:02;25.10;;;9.93;;
79668;SDS011;69136;52.614;6.976;2024-01-06T05:58:46;23.95;;;11.32;;
79668;SDS011;69136;52.614;6.976;2024-01-06T06:01:30;23.92;;;9.95;;
79668;SDS011;69136;52.614;6.976;2024-01-06T06:04:15;25.33;;;11.52;;
79668;SDS011;69136;52.614;6.976;2024-01-06T06:06:59;22.05;;;10.05;;
79668;SDS011;69136;52.614;6.976;2024-01-06T06:09:43;26.08;;;11.57;;
79668;SDS011;69136;52.614;6.976;2024-01-06T06:12:30;24.45;;;11.35;;
79668;SDS011;69136;52.614;6.976;2024-01-06T06:15:14;27.05;;;11.27;;
79668;SDS011;69136;52.614;6.976;2024-01-06T06:17:58;26.73;;;12.18;;
79668;SDS011;69136;52.614;6.976;2024-01-06T06:20:45;22.02;;;10.95;;
79668;SDS011;69136;52.614;6.976;2024-01-06T06:23:30;24.15;;;10.25;;
79668;SDS011;69136;52.614;6.976;2024-01-06T06:26:15;28.77;;;12.05;;
79668;SDS011;69136;52.614;6.976;2024-01-06T06:29:00;26.10;;;10.55;;
79668;SDS011;69136;52.614;6.976;2024-01-06T06:31:45;25.67;;;12.23;;
79668;SDS011;69136;52.614;6.976;2024-01-06T06:34:30;26.10;;;12.55;;
79668;SDS011;69136;52.614;6.976;2024-01-06T06:37:14;30.67;;;12.63;;
79668;SDS011;69136;52.614;6.976;2024-01-06T06:39:57;30.23;;;12.80;;
79668;SDS011;69136;52.614;6.976;2024-01-06T06:42:41;31.13;;;13.20;;
79668;SDS011;69136;52.614;6.976;2024-01-06T06:45:25;26.55;;;11.25;;
79668;SDS011;69136;52.614;6.976;2024-01-06T06:48:09;28.70;;;11.90;;
79668;SDS011;69136;52.614;6.976;2024-01-06T06:50:54;34.28;;;13.65;;
79668;SDS011;69136;52.614;6.976;2024-01-06T06:53:38;27.85;;;12.25;;
79668;SDS011;69136;52.614;6.976;2024-01-06T06:56:22;29.45;;;12.15;;
79668;SDS011;69136;52.614;6.976;2024-01-06T06:59:06;32.08;;;13.32;;
79668;SDS011;69136;52.614;6.976;2024-01-06T07:01:50;31.25;;;13.18;;
79668;SDS011;69136;52.614;6.976;2024-01-06T07:04:34;26.65;;;11.98;;
79668;SDS011;69136;52.614;6.976;2024-01-06T07:07:17;29.23;;;10.88;;
79668;SDS011;69136;52.614;6.976;2024-01-06T07:10:02;28.02;;;12.35;;
79668;SDS011;69136;52.614;6.976;2024-01-06T07:12:48;24.08;;;10.73;;
79668;SDS011;69136;52.614;6.976;2024-01-06T07:15:32;25.40;;;11.25;;
79668;SDS011;69136;52.614;6.976;2024-01-06T07:18:16;28.73;;;11.27;;
79668;SDS011;69136;52.614;6.976;2024-01-06T07:21:06;26.23;;;10.43;;
79668;SDS011;69136;52.614;6.976;2024-01-06T07:23:50;26.58;;;10.90;;
79668;SDS011;69136;52.614;6.976;2024-01-06T07:26:34;26.67;;;11.57;;
79668;SDS011;69136;52.614;6.976;2024-01-06T07:29:17;21.75;;;10.05;;
79668;SDS011;69136;52.614;6.976;2024-01-06T07:32:02;25.02;;;11.00;;
79668;SDS011;69136;52.614;6.976;2024-01-06T07:34:47;23.13;;;9.38;;
79668;SDS011;69136;52.614;6.976;2024-01-06T07:37:31;23.23;;;11.07;;
79668;SDS011;69136;52.614;6.976;2024-01-06T07:40:15;22.35;;;10.25;;
79668;SDS011;69136;52.614;6.976;2024-01-06T07:45:43;22.52;;;9.70;;
79668;SDS011;69136;52.614;6.976;2024-01-06T07:48:27;23.88;;;10.73;;
79668;SDS011;69136;52.614;6.976;2024-01-06T07:51:11;22.83;;;10.88;;
79668;SDS011;69136;52.614;6.976;2024-01-06T07:53:56;24.77;;;10.88;;
79668;SDS011;69136;52.614;6.976;2024-01-06T07:56:39;26.15;;;11.10;;
79668;SDS011;69136;52.614;6.976;2024-01-06T07:59:24;22.27;;;10.27;;
79668;SDS011;69136;52.614;6.976;2024-01-06T08:02:09;26.10;;;11.00;;
79668;SDS011;69136;52.614;6.976;2024-01-06T08:04:53;22.48;;;10.40;;
79668;SDS011;69136;52.614;6.976;2024-01-06T08:07:39;26.98;;;10.57;;
79668;SDS011;69136;52.614;6.976;2024-01-06T08:10:23;21.85;;;11.02;;
79668;SDS011;69136;52.614;6.976;2024-01-06T08:13:06;23.30;;;10.30;;
79668;SDS011;69136;52.614;6.976;2024-01-06T08:15:50;21.73;;;10.43;;
79668;SDS011;69136;52.614;6.976;2024-01-06T08:18:34;24.40;;;9.85;;
79668;SDS011;69136;52.614;6.976;2024-01-06T08:21:18;19.90;;;10.20;;
79668;SDS011;69136;52.614;6.976;2024-01-06T08:24:02;21.02;;;10.60;;
79668;SDS011;69136;52.614;6.976;2024-01-06T08:26:47;19.40;;;9.80;;
79668;SDS011;69136;52.614;6.976;2024-01-06T08:29:31;19.27;;;8.85;;
79668;SDS011;69136;52.614;6.976;2024-01-06T08:32:16;21.00;;;9.68;;
79668;SDS011;69136;52.614;6.976;2024-01-06T08:35:00;21.58;;;10.57;;
79668;SDS011;69136;52.614;6.976;2024-01-06T08:37:45;20.17;;;10.02;;
79668;SDS011;69136;52.614;6.976;2024-01-06T08:40:29;19.65;;;10.10;;
79668;SDS011;69136;52.614;6.976;2024-01-06T08:43:14;20.10;;;10.38;;
79668;SDS011;69136;52.614;6.976;2024-01-06T08:45:58;19.35;;;10.15;;
79668;SDS011;69136;52.614;6.976;2024-01-06T08:48:41;20.75;;;10.48;;
79668;SDS011;69136;52.614;6.976;2024-01-06T08:51:25;21.40;;;10.10;;
79668;SDS011;69136;52.614;6.976;2024-01-06T08:54:10;19.80;;;11.00;;
79668;SDS011;69136;52.614;6.976;2024-01-06T08:56:54;19.55;;;9.63;;
79668;SDS011;69136;52.614;6.976;2024-01-06T08:59:38;22.92;;;11.07;;
79668;SDS011;69136;52.614;6.976;2024-01-06T09:02:24;23.70;;;11.52;;
79668;SDS011;69136;52.614;6.976;2024-01-06T09:05:07;20.25;;;10.77;;
79668;SDS011;69136;52.614;6.976;2024-01-06T09:07:52;20.20;;;9.75;;
79668;SDS011;69136;52.614;6.976;2024-01-06T09:10:36;21.58;;;10.32;;
79668;SDS011;69136;52.614;6.976;2024-01-06T09:13:20;21.13;;;10.48;;
79668;SDS011;69136;52.614;6.976;2024-01-06T09:16:05;21.58;;;10.43;;
79668;SDS011;69136;52.614;6.976;2024-01-06T09:18:50;20.67;;;9.95;;
79668;SDS011;69136;52.614;6.976;2024-01-06T09:21:34;18.50;;;8.88;;
79668;SDS011;69136;52.614;6.976;2024-01-06T09:24:25;19.67;;;10.02;;
79668;SDS011;69136;52.614;6.976;2024-01-06T09:27:09;20.92;;;9.20;;
79668;SDS011;69136;52.614;6.976;2024-01-06T09:29:53;17.45;;;8.70;;
79668;SDS011;69136;52.614;6.976;2024-01-06T09:32:38;19.73;;;10.43;;
79668;SDS011;69136;52.614;6.976;2024-01-06T09:35:22;17.67;;;9.32;;
79668;SDS011;69136;52.614;6.976;2024-01-06T09:38:07;18.52;;;9.50;;
79668;SDS011;69136;52.614;6.976;2024-01-06T09:40:50;17.45;;;8.73;;
79668;SDS011;69136;52.614;6.976;2024-01-06T09:43:35;15.75;;;9.05;;
79668;SDS011;69136;52.614;6.976;2024-01-06T09:49:11;17.63;;;9.82;;
79668;SDS011;69136;52.614;6.976;2024-01-06T09:52:00;16.20;;;8.95;;
79668;SDS011;69136;52.614;6.976;2024-01-06T09:54:46;15.73;;;8.60;;
79668;SDS011;69136;52.614;6.976;2024-01-06T09:57:38;14.20;;;8.55;;
79668;SDS011;69136;52.614;6.976;2024-01-06T10:00:22;14.40;;;7.75;;
79668;SDS011;69136;52.614;6.976;2024-01-06T10:03:07;17.42;;;9.38;;
79668;SDS011;69136;52.614;6.976;2024-01-06T10:05:52;18.85;;;9.23;;
79668;SDS011;69136;52.614;6.976;2024-01-06T10:08:36;19.13;;;9.15;;
79668;SDS011;69136;52.614;6.976;2024-01-06T10:11:24;18.00;;;9.77;;
79668;SDS011;69136;52.614;6.976;2024-01-06T10:14:08;18.30;;;8.63;;
79668;SDS011;69136;52.614;6.976;2024-01-06T10:16:53;19.42;;;9.48;;
79668;SDS011;69136;52.614;6.976;2024-01-06T10:22:22;15.73;;;8.43;;
79668;SDS011;69136;52.614;6.976;2024-01-06T10:25:06;17.10;;;9.40;;
79668;SDS011;69136;52.614;6.976;2024-01-06T10:27:52;19.25;;;10.52;;
79668;SDS011;69136;52.614;6.976;2024-01-06T10:30:37;20.73;;;10.38;;
79668;SDS011;69136;52.614;6.976;2024-01-06T10:33:22;20.83;;;10.52;;
79668;SDS011;69136;52.614;6.976;2024-01-06T10:36:06;20.42;;;10.63;;
79668;SDS011;69136;52.614;6.976;2024-01-06T10:38:51;18.88;;;10.02;;
79668;SDS011;69136;52.614;6.976;2024-01-06T10:41:36;19.65;;;10.00;;
79668;SDS011;69136;52.614;6.976;2024-01-06T10:44:22;21.38;;;10.80;;
79668;SDS011;69136;52.614;6.976;2024-01-06T10:47:07;19.50;;;11.05;;
79668;SDS011;69136;52.614;6.976;2024-01-06T10:49:53;21.45;;;10.90;;
79668;SDS011;69136;52.614;6.976;2024-01-06T10:52:40;19.02;;;9.95;;
79668;SDS011;69136;52.614;6.976;2024-01-06T10:55:25;19.90;;;10.23;;
79668;SDS011;69136;52.614;6.976;2024-01-06T10:58:21;17.48;;;9.10;;
79668;SDS011;69136;52.614;6.976;2024-01-06T11:01:06;17.13;;;9.07;;
79668;SDS011;69136;52.614;6.976;2024-01-06T11:12:16;18.45;;;9.73;;
79668;SDS011;69136;52.614;6.976;2024-01-06T11:18:32;21.08;;;9.95;;
79668;SDS011;69136;52.614;6.976;2024-01-06T11:21:24;20.95;;;11.05;;
79668;SDS011;69136;52.614;6.976;2024-01-06T11:27:02;20.55;;;10.05;;
79668;SDS011;69136;52.614;6.976;2024-01-06T11:29:52;17.92;;;10.07;;
79668;SDS011;69136;52.614;6.976;2024-01-06T11:32:39;22.63;;;11.77;;
79668;SDS011;69136;52.614;6.976;2024-01-06T11:35:27;22.42;;;10.80;;
79668;SDS011;69136;52.614;6.976;2024-01-06T11:38:12;20.10;;;11.15;;
79668;SDS011;69136;52.614;6.976;2024-01-06T11:40:58;22.45;;;11.27;;
79668;SDS011;69136;52.614;6.976;2024-01-06T11:43:41;22.92;;;11.52;;
79668;SDS011;69136;52.614;6.976;2024-01-06T11:46:26;20.92;;;10.77;;
79668;SDS011;69136;52.614;6.976;2024-01-06T11:49:11;21.08;;;11.43;;
79668;SDS011;69136;52.614;6.976;2024-01-06T11:51:59;24.00;;;11.85;;
79668;SDS011;69136;52.614;6.976;2024-01-06T11:57:43;23.42;;;11.75;;
79668;SDS011;69136;52.614;6.976;2024-01-06T12:00:29;26.60;;;12.43;;
79668;SDS011;69136;52.614;6.976;2024-01-06T12:03:15;25.67;;;11.95;;
79668;SDS011;69136;52.614;6.976;2024-01-06T12:06:00;23.08;;;10.73;;
79668;SDS011;69136;52.614;6.976;2024-01-06T12:08:46;20.58;;;10.15;;
79668;SDS011;69136;52.614;6.976;2024-01-06T12:11:29;23.27;;;12.65;;
79668;SDS011;69136;52.614;6.976;2024-01-06T12:14:14;22.55;;;11.32;;
79668;SDS011;69136;52.614;6.976;2024-01-06T12:16:59;22.23;;;10.73;;
79668;SDS011;69136;52.614;6.976;2024-01-06T12:19:47;20.90;;;10.23;;
79668;SDS011;69136;52.614;6.976;2024-01-06T12:22:32;22.75;;;12.10;;
79668;SDS011;69136;52.614;6.976;2024-01-06T12:25:16;22.88;;;11.68;;
79668;SDS011;69136;52.614;6.976;2024-01-06T12:28:01;19.80;;;10.95;;
79668;SDS011;69136;52.614;6.976;2024-01-06T12:30:46;26.98;;;11.82;;
79668;SDS011;69136;52.614;6.976;2024-01-06T12:33:30;25.40;;;12.35;;
79668;SDS011;69136;52.614;6.976;2024-01-06T12:36:15;26.17;;;13.32;;
79668;SDS011;69136;52.614;6.976;2024-01-06T12:39:01;24.35;;;12.48;;
79668;SDS011;69136;52.614;6.976;2024-01-06T12:41:46;27.13;;;13.50;;
79668;SDS011;69136;52.614;6.976;2024-01-06T12:44:31;26.52;;;13.05;;
79668;SDS011;69136;52.614;6.976;2024-01-06T12:47:17;18.70;;;9.80;;
79668;SDS011;69136;52.614;6.976;2024-01-06T12:50:01;26.85;;;12.90;;
79668;SDS011;69136;52.614;6.976;2024-01-06T12:55:29;29.55;;;14.77;;
79668;SDS011;69136;52.614;6.976;2024-01-06T12:58:14;24.83;;;12.90;;
79668;SDS011;69136;52.614;6.976;2024-01-06T13:00:58;24.38;;;12.55;;
79668;SDS011;69136;52.614;6.976;2024-01-06T13:03:42;24.65;;;14.05;;
79668;SDS011;69136;52.614;6.976;2024-01-06T13:06:26;23.92;;;12.00;;
79668;SDS011;69136;52.614;6.976;2024-01-06T13:09:11;22.35;;;11.68;;
79668;SDS011;69136;52.614;6.976;2024-01-06T13:11:59;27.23;;;12.55;;
79668;SDS011;69136;52.614;6.976;2024-01-06T13:14:44;29.02;;;13.05;;
79668;SDS011;69136;52.614;6.976;2024-01-06T13:17:31;29.70;;;13.07;;
79668;SDS011;69136;52.614;6.976;2024-01-06T13:20:15;27.52;;;12.70;;
79668;SDS011;69136;52.614;6.976;2024-01-06T13:23:00;27.23;;;13.68;;
79668;SDS011;69136;52.614;6.976;2024-01-06T13:25:44;26.35;;;12.43;;
79668;SDS011;69136;52.614;6.976;2024-01-06T13:28:28;28.40;;;12.65;;
79668;SDS011;69136;52.614;6.976;2024-01-06T13:31:12;24.17;;;12.75;;
79668;SDS011;69136;52.614;6.976;2024-01-06T13:33:57;27.08;;;14.13;;
79668;SDS011;69136;52.614;6.976;2024-01-06T13:36:41;28.55;;;12.93;;
79668;SDS011;69136;52.614;6.976;2024-01-06T13:39:25;24.55;;;11.82;;
79668;SDS011;69136;52.614;6.976;2024-01-06T13:42:12;26.55;;;12.82;;
79668;SDS011;69136;52.614;6.976;2024-01-06T13:45:05;27.92;;;13.15;;
79668;SDS011;69136;52.614;6.976;2024-01-06T13:47:50;23.50;;;12.38;;
79668;SDS011;69136;52.614;6.976;2024-01-06T13:50:35;24.92;;;12.55;;
79668;SDS011;69136;52.614;6.976;2024-01-06T13:53:19;26.75;;;12.43;;
79668;SDS011;69136;52.614;6.976;2024-01-06T13:56:03;26.20;;;11.80;;
79668;SDS011;69136;52.614;6.976;2024-01-06T13:58:48;29.30;;;13.95;;
79668;SDS011;69136;52.614;6.976;2024-01-06T14:01:32;30.63;;;14.20;;
79668;SDS011;69136;52.614;6.976;2024-01-06T14:04:16;27.63;;;12.48;;
79668;SDS011;69136;52.614;6.976;2024-01-06T14:07:01;26.52;;;11.82;;
79668;SDS011;69136;52.614;6.976;2024-01-06T14:09:46;24.65;;;11.73;;
79668;SDS011;69136;52.614;6.976;2024-01-06T14:12:31;21.52;;;11.35;;
79668;SDS011;69136;52.614;6.976;2024-01-06T14:15:15;22.63;;;11.50;;
79668;SDS011;69136;52.614;6.976;2024-01-06T14:17:59;22.42;;;10.57;;
79668;SDS011;69136;52.614;6.976;2024-01-06T14:23:28;23.40;;;11.88;;
79668;SDS011;69136;52.614;6.976;2024-01-06T14:26:13;22.77;;;10.18;;
79668;SDS011;69136;52.614;6.976;2024-01-06T14:28:57;19.15;;;10.90;;
79668;SDS011;69136;52.614;6.976;2024-01-06T14:31:42;20.52;;;9.93;;
79668;SDS011;69136;52.614;6.976;2024-01-06T14:34:27;18.45;;;9.95;;
79668;SDS011;69136;52.614;6.976;2024-01-06T14:37:11;18.30;;;9.88;;
79668;SDS011;69136;52.614;6.976;2024-01-06T14:39:55;18.73;;;10.23;;
79668;SDS011;69136;52.614;6.976;2024-01-06T14:42:39;18.85;;;10.48;;
79668;SDS011;69136;52.614;6.976;2024-01-06T14:45:23;18.00;;;9.55;;
79668;SDS011;69136;52.614;6.976;2024-01-06T14:48:07;20.77;;;10.68;;
79668;SDS011;69136;52.614;6.976;2024-01-06T14:50:51;20.17;;;10.52;;
79668;SDS011;69136;52.614;6.976;2024-01-06T14:53:35;21.02;;;10.93;;
79668;SDS011;69136;52.614;6.976;2024-01-06T14:56:19;21.35;;;11.60;;
79668;SDS011;69136;52.614;6.976;2024-01-06T14:59:03;19.55;;;11.07;;
79668;SDS011;69136;52.614;6.976;2024-01-06T15:01:47;21.33;;;11.88;;
79668;SDS011;69136;52.614;6.976;2024-01-06T15:04:30;25.27;;;11.55;;
79668;SDS011;69136;52.614;6.976;2024-01-06T15:07:14;19.92;;;11.35;;
79668;SDS011;69136;52.614;6.976;2024-01-06T15:09:59;20.23;;;10.68;;
79668;SDS011;69136;52.614;6.976;2024-01-06T15:12:47;21.63;;;10.88;;
79668;SDS011;69136;52.614;6.976;2024-01-06T15:15:31;20.50;;;10.00;;
79668;SDS011;69136;52.614;6.976;2024-01-06T15:18:15;18.60;;;9.77;;
79668;SDS011;69136;52.614;6.976;2024-01-06T15:20:59;20.17;;;10.43;;
79668;SDS011;69136;52.614;6.976;2024-01-06T15:23:43;20.25;;;10.07;;
79668;SDS011;69136;52.614;6.976;2024-01-06T15:26:27;19.58;;;11.00;;
79668;SDS011;69136;52.614;6.976;2024-01-06T15:29:11;21.83;;;11.10;;
79668;SDS011;69136;52.614;6.976;2024-01-06T15:31:56;21.92;;;11.85;;
79668;SDS011;69136;52.614;6.976;2024-01-06T15:34:43;22.80;;;11.13;;
79668;SDS011;69136;52.614;6.976;2024-01-06T15:37:29;24.05;;;11.32;;
79668;SDS011;69136;52.614;6.976;2024-01-06T15:40:16;20.20;;;11.43;;
79668;SDS011;69136;52.614;6.976;2024-01-06T15:43:00;21.83;;;11.32;;
79668;SDS011;69136;52.614;6.976;2024-01-06T15:45:44;21.38;;;11.88;;
79668;SDS011;69136;52.614;6.976;2024-01-06T15:48:29;24.42;;;12.23;;
79668;SDS011;69136;52.614;6.976;2024-01-06T15:51:15;25.33;;;12.65;;
79668;SDS011;69136;52.614;6.976;2024-01-06T15:53:59;22.35;;;12.27;;
79668;SDS011;69136;52.614;6.976;2024-01-06T15:56:43;25.02;;;12.23;;
79668;SDS011;69136;52.614;6.976;2024-01-06T15:59:27;26.45;;;12.77;;
79668;SDS011;69136;52.614;6.976;2024-01-06T16:02:11;24.35;;;11.57;;
79668;SDS011;69136;52.614;6.976;2024-01-06T16:04:56;24.42;;;12.05;;
79668;SDS011;69136;52.614;6.976;2024-01-06T16:07:41;21.30;;;11.32;;
79668;SDS011;69136;52.614;6.976;2024-01-06T16:10:27;26.27;;;12.95;;
79668;SDS011;69136;52.614;6.976;2024-01-06T16:13:11;23.67;;;12.45;;
79668;SDS011;69136;52.614;6.976;2024-01-06T16:15:55;19.88;;;11.27;;
79668;SDS011;69136;52.614;6.976;2024-01-06T16:18:40;21.58;;;11.82;;
79668;SDS011;69136;52.614;6.976;2024-01-06T16:21:24;21.88;;;11.23;;
79668;SDS011;69136;52.614;6.976;2024-01-06T16:24:08;22.33;;;11.60;;
79668;SDS011;69136;52.614;6.976;2024-01-06T16:26:52;24.50;;;12.88;;
79668;SDS011;69136;52.614;6.976;2024-01-06T16:29:37;27.08;;;12.77;;
79668;SDS011;69136;52.614;6.976;2024-01-06T16:32:22;26.88;;;12.57;;
79668;SDS011;69136;52.614;6.976;2024-01-06T16:35:06;24.00;;;11.85;;
79668;SDS011;69136;52.614;6.976;2024-01-06T16:37:52;24.38;;;11.85;;
79668;SDS011;69136;52.614;6.976;2024-01-06T16:40:35;24.52;;;11.77;;
79668;SDS011;69136;52.614;6.976;2024-01-06T16:43:19;24.50;;;13.02;;
79668;SDS011;69136;52.614;6.976;2024-01-06T16:46:04;25.42;;;12.48;;